Time;durP1;ratioP1;P1;durP2;ratioP2;P2;SDS_P1;SDS_P2;PMS_P1;PMS_P2;Temp;Humidity;BMP_temperature;BMP_pressure;BME280_temperature;BME280_humidity;BME280_pressure;Samples;Min_cycle;Max_cycle;Signal;HPM_P1;HPM_P2
2023/06/22 00:00:32;;;;;;;17.43;15.93;;;21.40;91.80;;;21.42;64.05;101276.97;5054043;28;20194;-78
2023/06/22 00:03:04;;;;;;;17.97;16.37;;;21.30;91.60;;;21.35;64.15;101262.53;5053968;28;20279;-77
2023/06/22 00:05:35;;;;;;;18.67;16.93;;;21.30;91.60;;;21.35;64.37;101262.53;5054012;28;20240;-77
2023/06/22 00:08:09;;;;;;;17.67;16.03;;;21.20;91.90;;;21.28;64.86;101265.31;5053902;28;20183;-77
2023/06/22 00:10:41;;;;;;;18.03;16.53;;;21.20;92.00;;;21.23;64.85;101265.13;5053885;28;20614;-76
2023/06/22 00:13:13;;;;;;;18.70;17.10;;;21.10;92.10;;;21.24;64.81;101270.34;5053738;28;20236;-76
2023/06/22 00:15:46;;;;;;;18.10;16.53;;;21.10;92.40;;;20.96;66.06;101274.44;5053818;28;20218;-76
2023/06/22 00:18:18;;;;;;;17.40;15.93;;;20.80;92.80;;;20.95;65.73;101270.03;5053602;28;20667;-76
2023/06/22 00:20:50;;;;;;;17.77;16.20;;;20.80;93.30;;;20.96;65.40;101269.00;5053755;28;20248;-76
2023/06/22 00:23:23;;;;;;;16.70;15.17;;;20.90;92.70;;;21.01;64.52;101280.91;5053626;28;20312;-77
2023/06/22 00:25:55;;;;;;;18.10;16.47;;;21.00;92.40;;;21.02;64.67;101284.47;5053637;28;20273;-77
2023/06/22 00:28:28;;;;;;;17.40;15.90;;;21.00;92.30;;;20.96;64.92;101285.31;5054155;28;20221;-77
2023/06/22 00:31:01;;;;;;;16.90;15.40;;;20.90;92.40;;;20.93;65.09;101283.00;5053559;28;20276;-77
2023/06/22 00:33:33;;;;;;;16.63;15.23;;;20.80;92.60;;;20.87;65.31;101283.88;5053441;28;20233;-76
2023/06/22 00:36:06;;;;;;;16.87;15.20;;;20.80;92.60;;;20.82;65.15;101303.59;5053511;28;20197;-76
2023/06/22 00:38:40;;;;;;;16.53;15.07;;;20.70;92.80;;;20.79;65.17;101292.28;5053385;28;20210;-76
2023/06/22 00:41:11;;;;;;;16.70;15.13;;;20.60;93.00;;;20.86;65.19;101301.25;5053197;28;20637;-76
2023/06/22 00:43:43;;;;;;;17.17;15.57;;;20.80;92.90;;;20.91;65.08;101302.28;5053016;28;20665;-76
2023/06/22 00:46:16;;;;;;;16.77;15.27;;;20.90;92.70;;;20.83;64.64;101302.53;5053322;28;20277;-76
2023/06/22 00:48:48;;;;;;;16.93;15.23;;;20.80;92.60;;;20.78;65.11;101304.22;5053567;28;20190;-76
2023/06/22 00:51:24;;;;;;;17.00;15.33;;;20.70;92.80;;;20.72;65.41;101295.00;5053240;28;20723;-76
2023/06/22 00:53:56;;;;;;;16.50;15.10;;;20.60;92.80;;;20.67;65.62;101287.50;5053443;28;20236;-76
2023/06/22 00:56:29;;;;;;;17.23;15.80;;;20.70;92.90;;;20.61;65.71;101280.19;5053220;28;20190;-76
2023/06/22 00:59:03;;;;;;;17.90;16.30;;;20.50;93.20;;;20.53;66.14;101274.97;5053423;28;20252;-76
2023/06/22 01:01:41;;;;;;;17.70;16.10;;;20.50;93.30;;;20.56;65.94;101273.69;5053110;28;20190;-76
2023/06/22 01:04:13;;;;;;;17.57;15.87;;;20.50;93.40;;;20.46;66.39;101268.72;5053075;28;20244;-76
2023/06/22 01:06:58;;;;;;;16.90;15.40;;;20.30;93.60;;;20.45;65.84;101258.88;5052783;28;20644;-76
2023/06/22 01:09:45;;;;;;;16.93;15.53;;;20.40;93.50;;;20.39;66.46;101267.88;5052815;28;20682;-76
2023/06/22 01:12:19;;;;;;;17.60;16.00;;;20.30;93.60;;;20.43;66.54;101258.25;5052954;28;20191;-76
2023/06/22 01:15:02;;;;;;;16.83;15.33;;;20.40;93.60;;;20.42;65.94;101253.84;5053266;28;20217;-77
2023/06/22 01:17:41;;;;;;;17.17;15.67;;;20.40;93.50;;;20.29;66.56;101255.75;5052990;28;20272;-77
2023/06/22 01:20:17;;;;;;;17.07;15.40;;;20.30;93.70;;;20.22;66.83;101253.03;5052620;28;20691;-77
2023/06/22 01:23:06;;;;;;;16.43;15.13;;;20.10;94.00;;;20.22;66.69;101253.03;5052893;28;20243;-77
2023/06/22 01:25:47;;;;;;;18.87;15.63;;;20.20;94.00;;;20.15;66.89;101258.47;5052640;28;20190;-77
2023/06/22 01:28:42;;;;;;;17.70;16.03;;;20.10;94.10;;;20.26;66.35;101251.56;5052926;28;20252;-77
2023/06/22 01:31:17;;;;;;;17.13;15.53;;;20.20;93.90;;;20.17;67.08;101250.13;5056783;28;20264;-77
2023/06/22 01:33:52;;;;;;;16.70;15.20;;;20.20;94.00;;;20.19;66.35;101242.56;5057047;28;20312;-77
2023/06/22 01:36:26;;;;;;;16.70;15.13;;;20.10;94.00;;;20.08;67.02;101229.59;5056480;28;20626;-77
2023/06/22 01:39:00;;;;;;;15.70;14.30;;;20.10;93.90;;;20.08;66.86;101229.59;5056725;28;20233;-76
2023/06/22 01:41:35;;;;;;;15.87;14.27;;;20.10;94.20;;;20.03;66.76;101235.69;5056409;28;20214;-76
2023/06/22 01:44:11;;;;;;;15.80;14.23;;;20.00;94.40;;;20.02;66.89;101236.72;5056587;28;20265;-76
2023/06/22 01:46:45;;;;;;;15.00;13.67;;;20.00;94.40;;;20.00;67.00;101232.56;5056317;28;20193;-76
2023/06/22 01:49:18;;;;;;;14.27;13.07;;;20.10;94.30;;;20.00;66.94;101232.56;5056580;28;20187;-76
2023/06/22 01:51:50;;;;;;;15.13;13.70;;;20.00;94.30;;;19.99;66.92;101231.72;5056505;28;20575;-76
2023/06/22 01:54:22;;;;;;;15.43;13.90;;;20.00;94.30;;;19.94;67.13;101225.22;5056415;28;20309;-76
2023/06/22 01:56:54;;;;;;;15.53;13.93;;;20.00;94.20;;;19.94;67.27;101223.34;5056145;28;20644;-76
2023/06/22 01:59:36;;;;;;;13.93;12.73;;;19.90;94.20;;;19.88;67.25;101220.63;5056289;28;20214;-76
2023/06/22 02:02:14;;;;;;;14.63;13.13;;;19.90;94.30;;;19.73;67.67;101237.13;5056049;28;20686;-76
2023/06/22 02:04:52;;;;;;;13.63;12.27;;;19.80;94.30;;;19.84;67.22;101238.41;5055942;28;20286;-76
2023/06/22 02:07:29;;;;;;;12.47;11.27;;;19.90;94.50;;;19.88;66.77;101236.94;5056187;28;20194;-76
2023/06/22 02:10:03;;;;;;;13.53;12.17;;;19.90;94.40;;;19.86;67.31;101239.03;5055874;28;20281;-76
2023/06/22 02:12:37;;;;;;;12.80;11.50;;;19.90;94.50;;;19.87;67.06;101227.09;5056114;28;20222;-76
2023/06/22 02:15:14;;;;;;;13.27;11.37;;;19.90;94.40;;;19.89;67.23;101246.78;5056098;28;20189;-76
2023/06/22 02:17:45;;;;;;;14.50;12.00;;;20.00;94.30;;;19.88;66.94;101245.09;5055731;28;20244;-76
2023/06/22 02:20:18;;;;;;;12.80;11.60;;;19.90;94.40;;;19.90;66.91;101248.44;5055650;28;20589;-76
2023/06/22 02:22:50;;;;;;;12.33;11.23;;;20.00;94.40;;;19.88;67.31;101245.09;5055835;28;20744;-76
2023/06/22 02:25:22;;;;;;;13.37;12.07;;;19.90;94.50;;;19.84;67.60;101238.41;5055919;28;20201;-76
2023/06/22 02:27:53;;;;;;;12.87;11.60;;;19.90;94.50;;;19.79;67.66;101243.63;5055868;28;20206;-76
2023/06/22 02:30:26;;;;;;;14.23;12.83;;;19.90;94.60;;;19.76;67.74;101242.16;5055806;28;20186;-76
2023/06/22 02:32:59;;;;;;;12.70;11.50;;;19.80;94.70;;;19.72;67.86;101249.06;5055377;28;20704;-76
2023/06/22 02:35:35;;;;;;;13.67;12.27;;;19.70;94.90;;;19.65;67.86;101246.34;5055353;28;20639;-76
2023/06/22 02:38:08;;;;;;;11.90;10.70;;;19.70;94.90;;;19.72;67.96;101246.34;5055355;28;20631;-76
2023/06/22 02:40:39;;;;;;;13.50;12.40;;;19.80;94.80;;;19.64;68.08;101247.38;5054438;28;20248;-76
2023/06/22 02:43:11;;;;;;;12.67;11.37;;;19.70;94.80;;;19.64;68.13;101247.38;5055431;28;20233;-76
2023/06/22 02:45:44;;;;;;;12.63;11.33;;;19.70;94.90;;;19.64;68.35;101258.25;5055519;28;20619;-76
2023/06/22 02:48:16;;;;;;;13.37;11.80;;;19.70;95.00;;;19.62;68.32;101268.47;5055455;28;20260;-76
2023/06/22 02:50:48;;;;;;;12.50;11.40;;;19.70;95.10;;;19.60;68.48;101273.28;5055381;28;20187;-76
2023/06/22 02:53:20;;;;;;;11.77;10.77;;;19.70;95.20;;;19.60;68.23;101276.00;5055301;28;20317;-76
2023/06/22 02:55:52;;;;;;;14.00;11.00;;;19.70;95.30;;;19.56;68.57;101279.31;5054996;28;20667;-76
2023/06/22 02:58:25;;;;;;;12.33;11.23;;;19.60;95.30;;;19.59;68.56;101281.63;5055291;28;20214;-76
2023/06/22 03:01:04;;;;;;;13.20;11.67;;;19.70;95.30;;;19.56;68.58;101284.75;5055186;28;20220;-76
2023/06/22 03:03:36;;;;;;;11.63;10.63;;;19.70;95.30;;;19.58;68.51;101294.38;5055117;28;20226;-76
2023/06/22 03:06:13;;;;;;;12.23;11.13;;;19.70;95.30;;;19.52;68.88;101295.19;5055157;28;20248;-76
2023/06/22 03:08:45;;;;;;;12.13;11.03;;;19.60;95.50;;;19.46;68.78;101290.59;5055060;28;20194;-76
2023/06/22 03:11:17;;;;;;;13.73;11.27;;;19.50;95.40;;;19.47;68.83;101294.97;5054806;28;20661;-76
2023/06/22 03:13:49;;;;;;;12.33;11.23;;;19.60;95.60;;;19.44;68.60;101298.09;5054934;28;20284;-77
2023/06/22 03:16:22;;;;;;;12.00;10.77;;;19.50;95.50;;;19.42;69.20;101297.47;5054973;28;20277;-77
2023/06/22 03:18:54;;;;;;;12.60;11.50;;;19.50;95.70;;;19.44;68.86;101298.09;5054822;28;20201;-77
2023/06/22 03:21:31;;;;;;;12.43;11.33;;;19.50;95.70;;;19.40;69.21;101302.25;5054576;28;20289;-77
2023/06/22 03:24:03;;;;;;;12.90;11.67;;;19.50;95.70;;;19.37;69.44;101302.66;5054719;28;20226;-77
2023/06/22 03:26:35;;;;;;;12.53;11.37;;;19.50;95.80;;;19.27;69.49;101296.78;5054486;28;20186;-77
2023/06/22 03:29:07;;;;;;;11.37;10.30;;;19.40;95.70;;;19.34;69.00;101297.63;5054762;28;20541;-77
2023/06/22 03:31:40;;;;;;;12.60;11.30;;;19.50;95.80;;;19.33;68.96;101289.69;5054394;28;20190;-77
2023/06/22 03:34:12;;;;;;;11.40;10.40;;;19.50;95.80;;;19.33;69.48;101300.53;5054578;28;20226;-77
2023/06/22 03:36:45;;;;;;;11.87;10.80;;;19.50;95.80;;;19.33;69.41;101298.66;5054295;28;20636;-77
2023/06/22 03:39:17;;;;;;;11.73;10.63;;;19.40;95.80;;;19.34;69.47;101303.06;5054432;28;20197;-77
2023/06/22 03:41:49;;;;;;;12.07;10.97;;;19.50;95.90;;;19.30;69.42;101301.78;5054177;28;20241;-77
2023/06/22 03:44:21;;;;;;;12.37;11.17;;;19.50;95.80;;;19.30;69.75;101292.81;5054385;28;20261;-77
2023/06/22 03:46:54;;;;;;;11.73;10.63;;;19.40;96.10;;;19.31;69.65;101289.91;5054482;28;20195;-77
2023/06/22 03:49:26;;;;;;;11.37;10.27;;;19.40;96.10;;;19.27;69.64;101291.34;5054456;28;20278;-77
2023/06/22 03:51:57;;;;;;;12.37;11.17;;;19.40;96.00;;;19.27;69.60;101299.47;5054159;28;20195;-77
2023/06/22 03:54:43;;;;;;;11.57;10.57;;;19.40;95.90;;;19.31;69.58;101295.31;5076809;28;20206;-77
2023/06/22 03:57:15;;;;;;;12.03;10.90;;;19.50;96.10;;;19.31;69.33;101295.31;5056700;28;20218;-77
2023/06/22 03:59:47;;;;;;;11.63;10.63;;;19.50;95.90;;;19.33;69.81;101300.53;5054105;28;20305;-77
2023/06/22 04:02:20;;;;;;;12.60;11.37;;;19.50;96.20;;;19.30;70.28;101290.94;5054050;28;20194;-77
2023/06/22 04:04:52;;;;;;;12.53;11.37;;;19.40;96.30;;;19.32;70.15;101294.25;5054164;28;20194;-77
2023/06/22 04:07:24;;;;;;;12.90;11.70;;;19.50;96.20;;;19.32;69.93;101288.84;5061725;28;20194;-77
2023/06/22 04:09:56;;;;;;;14.70;13.20;;;19.50;96.20;;;19.28;70.52;101293.00;5053933;28;20276;-77
2023/06/22 04:12:28;;;;;;;13.77;12.47;;;19.40;96.40;;;19.26;70.39;101303.22;5053901;28;20233;-77
2023/06/22 04:15:00;;;;;;;13.37;12.17;;;19.40;96.50;;;19.21;70.66;101297.59;5053856;28;20194;-77
2023/06/22 04:17:33;;;;;;;12.60;11.40;;;19.40;96.60;;;19.18;71.10;101300.69;5053909;28;20285;-77
2023/06/22 04:20:05;;;;;;;11.20;10.10;;;19.40;96.70;;;19.26;70.02;101295.09;5053435;28;20704;-77
2023/06/22 04:22:37;;;;;;;10.53;9.63;;;19.40;96.20;;;19.30;70.01;101290.94;5053684;28;20226;-77
2023/06/22 04:25:10;;;;;;;12.33;11.03;;;19.50;96.30;;;19.34;70.42;101286.78;5053408;28;20643;-77
2023/06/22 04:27:42;;;;;;;12.97;10.47;;;19.60;96.40;;;19.35;70.49;101283.00;5053348;28;20716;-77
2023/06/22 04:30:16;;;;;;;11.37;10.33;;;19.60;96.40;;;19.37;70.34;101290.94;5053301;28;20197;-77
2023/06/22 04:32:56;;;;;;;11.97;10.90;;;19.60;96.40;;;19.37;70.79;101288.22;5053465;28;20317;-77
2023/06/22 04:35:30;;;;;;;11.27;10.27;;;19.60;96.50;;;19.40;70.54;101290.53;5053482;28;20229;-77
2023/06/22 04:38:03;;;;;;;11.80;10.70;;;19.60;96.50;;;19.41;71.08;101292.25;5053154;28;20715;-77
2023/06/22 04:40:35;;;;;;;12.57;11.40;;;19.60;96.70;;;19.39;71.60;101289.69;5053633;28;20295;-77
2023/06/22 04:43:07;;;;;;;12.27;11.17;;;19.60;96.90;;;19.40;71.29;101291.38;5052340;28;20261;-77
2023/06/22 04:45:39;;;;;;;12.13;10.37;;;19.60;97.00;;;19.41;70.98;101293.09;5053434;28;20202;-77
2023/06/22 04:48:15;;;;;;;12.27;10.97;;;19.60;96.70;;;19.42;70.60;101297.47;5053654;28;20190;-77
2023/06/22 04:50:47;;;;;;;11.70;10.63;;;19.70;96.60;;;19.40;71.07;101296.81;5052966;28;20197;-77
2023/06/22 04:53:19;;;;;;;12.53;11.40;;;19.60;96.70;;;19.34;71.55;101297.63;5053183;28;20798;-77
2023/06/22 04:55:53;;;;;;;12.60;11.30;;;19.60;97.00;;;19.37;70.90;101297.22;5053504;28;20277;-77
2023/06/22 04:58:28;;;;;;;12.90;11.63;;;19.60;96.80;;;19.39;70.79;101289.69;5053242;28;20193;-77
2023/06/22 05:01:00;;;;;;;11.03;10.03;;;19.60;96.70;;;19.41;70.58;101287.66;5053132;28;20224;-77
2023/06/22 05:03:33;;;;;;;12.60;11.50;;;19.70;96.50;;;19.40;71.01;101285.09;5052418;28;20782;-77
2023/06/22 05:06:05;;;;;;;12.30;11.20;;;19.70;96.80;;;19.42;70.78;101285.78;5052953;28;20190;-77
2023/06/22 05:08:37;;;;;;;11.37;10.23;;;19.70;97.10;;;19.45;70.96;101297.03;5053099;28;20221;-77
2023/06/22 05:11:09;;;;;;;12.63;11.47;;;19.70;96.80;;;19.43;71.09;101287.44;5053106;28;20182;-77
2023/06/22 05:13:41;;;;;;;11.03;10.13;;;19.70;96.80;;;19.45;70.24;101288.91;5052999;28;20244;-77
2023/06/22 05:16:13;;;;;;;11.50;10.40;;;19.70;96.50;;;19.48;70.66;101276.81;5053082;28;20190;-77
2023/06/22 05:18:47;;;;;;;12.10;11.00;;;19.70;96.70;;;19.48;71.53;101280.38;5052998;28;20233;-77
2023/06/22 05:21:18;;;;;;;9.67;8.77;;;19.80;96.80;;;19.53;70.65;101279.72;5052925;28;20213;-77
2023/06/22 05:23:50;;;;;;;10.60;9.60;;;19.80;96.60;;;19.55;70.96;101273.06;5052866;28;20234;-77
2023/06/22 05:26:23;;;;;;;11.87;10.67;;;19.90;96.60;;;19.59;71.27;101274.31;5052743;28;20191;-77
2023/06/22 05:28:56;;;;;;;11.03;9.93;;;19.90;96.80;;;19.62;70.87;101278.50;5052917;28;20222;-76
2023/06/22 05:31:28;;;;;;;11.37;10.10;;;19.90;96.70;;;19.66;71.33;101275.16;5052915;28;20183;-75
2023/06/22 05:34:02;;;;;;;11.70;10.50;;;20.00;96.90;;;19.69;70.57;101274.75;5052834;28;20253;-75
2023/06/22 05:36:34;;;;;;;12.03;10.93;;;20.10;96.60;;;19.72;70.55;101268.94;5052936;28;20190;-75
2023/06/22 05:39:16;;;;;;;13.67;12.27;;;20.10;97.10;;;19.74;71.29;101269.53;5052875;28;20265;-75
2023/06/22 05:41:49;;;;;;;13.57;12.47;;;20.10;96.80;;;19.76;70.55;101273.94;5052491;28;20280;-75
2023/06/22 05:44:21;;;;;;;11.30;10.20;;;20.10;96.70;;;19.81;70.07;101274.13;5052731;28;20226;-75
2023/06/22 05:46:52;;;;;;;13.97;12.33;;;20.10;96.30;;;19.83;71.64;101269.34;5052491;28;20651;-75
2023/06/22 05:49:32;;;;;;;11.37;10.27;;;20.20;96.90;;;19.88;71.39;101277.69;5052466;28;20661;-75
2023/06/22 05:52:04;;;;;;;12.27;11.07;;;20.20;96.70;;;19.90;70.74;101267.47;5052732;28;20286;-75
2023/06/22 05:54:36;;;;;;;11.90;10.77;;;20.20;96.50;;;19.92;70.54;101268.94;5052342;28;20253;-75
2023/06/22 05:57:08;;;;;;;10.20;9.30;;;20.30;96.50;;;19.95;70.05;101273.09;5052764;28;20273;-75
2023/06/22 05:59:40;;;;;;;10.23;9.23;;;20.30;96.30;;;19.98;69.91;101275.41;5052684;28;20186;-75
2023/06/22 06:02:13;;;;;;;13.40;10.73;;;20.30;96.10;;;20.01;70.29;101274.97;5052518;28;20726;-75
2023/06/22 06:04:46;;;;;;;12.23;11.13;;;20.30;96.30;;;20.02;69.55;101273.94;5052675;28;20671;-75
2023/06/22 06:07:18;;;;;;;12.63;11.43;;;20.40;96.10;;;20.05;70.50;101274.38;5053144;28;20201;-75
2023/06/22 06:09:50;;;;;;;13.00;11.83;;;20.40;96.30;;;20.07;70.20;101274.97;5052956;28;20222;-75
2023/06/22 06:12:22;;;;;;;12.43;11.23;;;20.40;96.30;;;20.11;70.15;101273.53;5052640;28;20370;-77
2023/06/22 06:14:56;;;;;;;12.77;11.57;;;20.50;96.20;;;20.17;69.74;101272.66;5053338;28;20272;-77
2023/06/22 06:17:28;;;;;;;10.87;9.80;;;20.50;96.00;;;20.22;69.10;101275.63;5056342;28;20288;-78
2023/06/22 06:20:04;;;;;;;11.00;10.00;;;20.60;95.70;;;20.31;69.72;101273.53;5056043;28;20617;-77
2023/06/22 06:22:36;;;;;;;11.17;10.07;;;20.70;95.90;;;20.38;69.60;101274.34;5055730;28;20711;-77
2023/06/22 06:25:16;;;;;;;12.70;10.13;;;20.80;95.80;;;20.42;69.28;101275.63;5056610;28;20197;-77
2023/06/22 06:27:50;;;;;;;11.80;10.57;;;20.80;95.50;;;20.51;68.00;101265.34;5056022;28;20190;-77
2023/06/22 06:30:23;;;;;;;10.70;9.70;;;20.90;95.00;;;20.60;67.64;101262.19;5055891;28;20280;-77
2023/06/22 06:32:55;;;;;;;10.67;9.60;;;21.00;95.00;;;20.64;67.60;101263.44;5056131;28;20241;-77
2023/06/22 06:35:29;;;;;;;9.23;8.43;;;21.10;95.40;;;20.71;68.13;101263.41;5055835;28;20190;-77
2023/06/22 06:38:02;;;;;;;9.73;8.73;;;21.10;95.00;;;20.72;67.88;101255.03;5055844;28;20234;-78
2023/06/22 06:40:33;;;;;;;9.97;9.17;;;21.20;94.90;;;20.80;68.11;101247.69;5055603;28;20220;-77
2023/06/22 06:43:06;;;;;;;9.60;8.63;;;21.30;94.90;;;20.87;67.16;101253.94;5055308;28;20610;-77
2023/06/22 06:45:38;;;;;;;9.63;8.40;;;21.30;94.40;;;20.95;66.52;101251.81;5055890;28;20197;-77
2023/06/22 06:48:10;;;;;;;8.77;7.20;;;21.40;94.20;;;20.99;67.17;101255.78;5055638;28;20186;-77
2023/06/22 06:50:43;;;;;;;9.73;8.40;;;21.40;94.50;;;21.08;65.26;101253.66;5055258;28;20619;-77
2023/06/22 06:53:15;;;;;;;8.90;8.00;;;21.50;93.60;;;21.15;66.84;101251.75;5055475;28;20234;-77
2023/06/22 06:55:48;;;;;;;8.60;7.70;;;21.60;94.20;;;21.25;64.48;101243.94;5055556;28;20191;-78
2023/06/22 06:58:19;;;;;;;9.07;8.17;;;21.70;93.20;;;21.38;64.76;101243.88;5055176;28;20201;-78
2023/06/22 07:00:51;;;;;;;7.67;6.97;;;21.80;93.20;;;21.39;66.87;101253.72;5055394;28;20229;-77
2023/06/22 07:03:23;;;;;;;7.73;7.13;;;21.90;94.00;;;21.45;64.81;101249.28;5055317;28;20229;-77
2023/06/22 07:05:57;;;;;;;8.80;7.10;;;21.90;93.30;;;21.55;64.09;101239.56;5055432;28;20252;-77
2023/06/22 07:08:29;;;;;;;7.27;6.57;;;22.00;92.90;;;21.61;64.02;101241.41;5055376;28;20201;-77
2023/06/22 07:11:01;;;;;;;7.33;6.50;;;22.10;92.60;;;21.72;64.44;101246.16;5055843;28;20226;-77
2023/06/22 07:13:33;;;;;;;7.33;6.63;;;22.20;92.70;;;21.82;63.51;101255.72;5055290;28;20308;-63
2023/06/22 07:16:05;;;;;;;7.27;6.27;;;22.30;92.40;;;21.85;64.65;101244.41;5055010;28;20229;-74
2023/06/22 07:18:37;;;;;;;10.13;6.73;;;22.30;93.00;;;22.02;62.65;101249.09;5054945;28;20260;-74
2023/06/22 07:21:10;;;;;;;6.90;6.20;;;22.40;92.00;;;22.15;63.82;101248.16;5054934;28;20273;-74
2023/06/22 07:23:42;;;;;;;8.60;6.67;;;22.60;92.40;;;22.16;63.28;101244.34;5054485;28;20313;-75
2023/06/22 07:26:15;;;;;;;8.70;6.20;;;22.70;92.10;;;22.23;62.73;101247.84;5055364;28;20280;-74
2023/06/22 07:28:47;;;;;;;7.40;6.70;;;22.70;92.00;;;22.29;63.65;101246.97;5055030;28;20187;-74
2023/06/22 07:31:19;;;;;;;7.47;6.77;;;22.70;92.50;;;22.31;64.19;101244.00;5055634;28;20200;-74
2023/06/22 07:33:52;;;;;;;8.43;7.63;;;22.80;92.50;;;22.41;62.66;101244.31;5055159;28;20222;-74
2023/06/22 07:36:26;;;;;;;8.03;7.23;;;22.80;92.00;;;22.50;61.90;101257.44;5055865;28;20223;-73
2023/06/22 07:38:58;;;;;;;7.40;6.43;;;23.00;91.50;;;22.48;61.67;101248.66;5055200;28;20277;-74
2023/06/22 07:41:30;;;;;;;9.93;7.97;;;22.90;91.40;;;22.44;61.43;101243.84;5054398;28;20318;-74
2023/06/22 07:44:02;;;;;;;6.87;6.17;;;22.80;91.40;;;22.44;62.90;101244.69;5054495;28;20268;-75
2023/06/22 07:46:34;;;;;;;7.47;6.83;;;22.80;91.70;;;22.48;62.51;101239.63;5054552;28;20188;-74
2023/06/22 07:49:08;;;;;;;8.53;7.80;;;22.80;91.70;;;22.48;62.41;101240.47;5054194;28;20282;-74
2023/06/22 07:51:42;;;;;;;9.43;7.07;;;22.90;91.70;;;22.52;62.95;101241.69;5054396;28;20224;-74
2023/06/22 07:54:16;;;;;;;7.47;6.77;;;22.90;92.00;;;22.59;62.86;101245.19;5057279;28;20794;-75
2023/06/22 07:56:48;;;;;;;7.47;6.87;;;23.00;92.00;;;22.63;62.48;101251.03;5057509;28;20205;-75
2023/06/22 07:59:20;;;;;;;9.23;7.73;;;23.00;91.70;;;22.70;62.01;101249.09;5056311;28;20282;-74
2023/06/22 08:01:52;;;;;;;8.40;7.60;;;23.10;91.50;;;22.76;62.11;101250.06;5055186;28;20698;-75
2023/06/22 08:04:24;;;;;;;8.77;7.87;;;23.20;91.40;;;22.83;61.68;101253.53;5054653;28;20221;-75
2023/06/22 08:06:58;;;;;;;10.10;8.07;;;23.20;91.30;;;22.84;60.87;101244.31;5054615;28;20284;-75
2023/06/22 08:09:31;;;;;;;9.57;8.03;;;23.20;91.00;;;22.87;61.03;101238.38;5054466;28;20225;-74
2023/06/22 08:12:03;;;;;;;12.53;8.23;;;23.20;90.90;;;22.86;62.29;101236.69;5054350;28;20187;-75
2023/06/22 08:14:36;;;;;;;14.60;9.07;;;23.20;91.40;;;22.89;61.47;101236.25;5054209;28;20280;-75
2023/06/22 08:17:08;;;;;;;8.67;7.57;;;23.20;91.10;;;22.90;62.16;101238.75;5054016;28;20623;-75
2023/06/22 08:19:42;;;;;;;9.63;8.73;;;23.20;91.50;;;22.95;61.54;101232.59;5054172;28;20281;-75
2023/06/22 08:22:16;;;;;;;10.53;9.47;;;23.30;91.20;;;22.95;61.02;101238.88;5053648;28;20217;-75
2023/06/22 08:24:48;;;;;;;9.30;8.13;;;23.30;91.10;;;22.99;61.47;101248.28;5053973;28;20285;-75
2023/06/22 08:27:23;;;;;;;9.20;8.30;;;23.30;91.10;;;23.06;61.37;101248.22;5053533;28;20193;-74
2023/06/22 08:29:58;;;;;;;10.50;9.40;;;23.40;91.30;;;23.11;61.06;101260.13;5053836;28;20190;-75
2023/06/22 08:32:33;;;;;;;9.03;8.23;;;23.50;90.90;;;23.15;61.75;101246.84;5053619;28;20182;-74
2023/06/22 08:35:08;;;;;;;12.47;11.13;;;23.50;91.20;;;23.16;60.89;101245.75;5053660;28;20190;-73
2023/06/22 08:37:42;;;;;;;11.67;10.20;;;23.50;90.80;;;23.19;61.23;101242.56;5053663;28;20189;-74
2023/06/22 08:40:15;;;;;;;14.23;12.83;;;23.50;91.00;;;23.21;61.04;101245.91;5052404;28;20213;-74
2023/06/22 08:42:47;;;;;;;10.33;9.40;;;23.50;90.80;;;23.26;62.05;101246.03;5053032;28;20230;-74
2023/06/22 08:45:20;;;;;;;11.17;10.10;;;23.60;91.40;;;23.29;61.40;101256.50;5053557;28;20285;-73
2023/06/22 08:47:53;;;;;;;12.77;10.70;;;23.60;91.00;;;23.32;61.13;101249.75;5053483;28;20563;-74
2023/06/22 08:50:25;;;;;;;13.37;12.00;;;23.60;90.90;;;23.37;61.06;101249.88;5053488;28;20190;-74
2023/06/22 08:52:58;;;;;;;12.43;11.17;;;23.60;90.90;;;23.40;60.67;101249.41;5053382;28;20225;-74
2023/06/22 08:55:30;;;;;;;10.93;9.90;;;23.70;90.70;;;23.44;61.13;101251.50;5053449;28;20186;-74
2023/06/22 08:58:03;;;;;;;15.10;13.63;;;23.80;90.80;;;23.47;61.10;101244.72;5053467;28;20244;-74
2023/06/22 09:00:37;;;;;;;15.40;14.00;;;23.80;90.90;;;23.49;60.51;101237.97;5053126;28;20712;-74
2023/06/22 09:03:11;;;;;;;13.20;12.03;;;23.80;90.70;;;23.54;61.03;101235.38;5053245;28;20257;-74
2023/06/22 09:05:43;;;;;;;12.10;10.93;;;23.90;90.80;;;23.60;61.07;101228.13;5053022;28;20197;-74
2023/06/22 09:08:17;;;;;;;15.43;13.90;;;23.90;90.80;;;23.55;60.78;101225.28;5053395;28;20240;-73
2023/06/22 09:10:49;;;;;;;11.83;10.83;;;23.90;90.60;;;23.61;61.52;101229.78;5053085;28;20653;-74
2023/06/22 09:13:22;;;;;;;14.73;13.27;;;23.90;91.00;;;23.61;60.51;101233.38;5053149;28;20593;-74
2023/06/22 09:15:53;;;;;;;16.37;14.67;;;23.90;90.50;;;23.65;60.64;101223.63;5052933;28;20212;-74
2023/06/22 09:18:26;;;;;;;17.07;15.43;;;23.90;90.60;;;23.70;61.07;101223.75;5053205;28;20190;-73
2023/06/22 09:20:57;;;;;;;13.53;12.13;;;24.00;90.90;;;23.78;60.68;101210.81;5053229;28;20281;-73
2023/06/22 09:23:31;;;;;;;13.57;12.17;;;24.10;90.70;;;23.85;61.55;101211.53;5053022;28;20230;-74
2023/06/22 09:26:04;;;;;;;14.13;12.80;;;24.10;91.00;;;23.91;59.89;101207.84;5052903;28;20671;-73
2023/06/22 09:28:36;;;;;;;13.90;12.43;;;24.20;90.10;;;24.00;59.91;101200.97;5053167;28;20194;-74
2023/06/22 09:31:08;;;;;;;13.03;11.73;;;24.30;90.30;;;24.11;60.79;101197.41;5053091;28;20198;-74
2023/06/22 09:33:40;;;;;;;12.90;11.70;;;24.40;90.60;;;24.26;60.69;101192.31;5053443;28;20273;-74
2023/06/22 09:36:13;;;;;;;13.83;12.37;;;24.60;90.50;;;24.38;59.09;101193.13;5053138;28;20281;-74
2023/06/22 09:38:46;;;;;;;11.03;10.10;;;24.70;89.30;;;24.51;59.13;101186.56;5052721;28;20735;-74
2023/06/22 09:41:18;;;;;;;13.07;11.87;;;24.80;89.70;;;24.61;58.38;101190.34;5052763;28;20222;-74
2023/06/22 09:43:50;;;;;;;15.67;14.13;;;24.90;88.50;;;24.62;59.39;101200.22;5052524;28;20317;-73
2023/06/22 09:46:24;;;;;;;14.18;11.13;;;24.90;90.20;;;24.64;59.09;101189.88;5052971;28;20190;-75
2023/06/22 09:48:56;;;;;;;14.65;12.80;;;25.00;89.00;;;24.67;58.18;101183.91;5053036;28;20352;-75
2023/06/22 09:51:28;;;;;;;13.45;12.05;;;25.00;87.80;;;24.69;59.20;101181.75;5055328;28;20731;-75
2023/06/22 09:54:01;;;;;;;13.80;12.50;;;25.00;89.30;;;24.67;58.14;101189.38;5056700;28;20276;-75
2023/06/22 09:56:33;;;;;;;15.07;13.60;;;25.00;87.90;;;24.66;57.66;101190.44;5056545;28;20198;-74
2023/06/22 09:59:05;;;;;;;13.15;11.88;;;24.90;87.50;;;24.72;58.24;101186.75;5056611;28;20214;-74
2023/06/22 10:01:49;;;;;;;15.77;14.07;;;25.00;88.30;;;24.76;57.87;101183.53;5056524;28;20535;-76
2023/06/22 10:04:21;;;;;;;14.18;12.88;;;25.00;88.60;;;24.82;57.40;101182.56;5056383;28;20321;-75
2023/06/22 10:06:53;;;;;;;14.52;13.10;;;25.10;87.30;;;24.92;57.03;101182.78;5056569;28;20202;-75
2023/06/22 10:09:27;;;;;;;13.70;12.50;;;25.20;86.90;;;25.06;56.80;101181.44;5056394;28;20301;-76
2023/06/22 10:11:58;;;;;;;12.90;11.70;;;25.30;86.60;;;25.17;57.55;101181.34;5056520;28;20285;-74
2023/06/22 10:14:31;;;;;;;15.27;13.80;;;25.40;87.50;;;25.19;56.00;101186.59;5056237;28;20308;-74
2023/06/22 10:17:03;;;;;;;14.98;13.68;;;25.50;85.60;;;25.29;58.33;101178.56;5056340;28;20190;-74
2023/06/22 10:19:37;;;;;;;13.40;12.02;;;25.60;87.80;;;25.40;57.10;101177.69;5056486;28;20229;-74
2023/06/22 10:22:09;;;;;;;17.88;16.05;;;25.60;86.70;;;25.48;56.34;101185.47;5056137;28;20190;-74
2023/06/22 10:24:44;;;;;;;15.73;14.32;;;25.70;86.00;;;25.58;56.87;101177.44;5056136;28;20221;-74
2023/06/22 10:27:16;;;;;;;14.48;13.15;;;25.90;86.40;;;25.68;54.87;101172.16;5055920;28;20715;-74